Home > Products > Valid Products > TAF

000
FTUS44 KOUN 312048 AAA
TAFLAW
TAF AMD
KLAW 312048Z 3121/0118 08007KT P6SM SCT050
      TEMPO 3121/3123 VRB20G35KT 5SM -TSRA SCT035CB
     FM011500 18006KT P6SM SCT050=



000
FTUS44 KOUN 312048 AAA
TAFLAW
TAF AMD
KLAW 312048Z 3121/0118 08007KT P6SM SCT050
      TEMPO 3121/3123 VRB20G35KT 5SM -TSRA SCT035CB
     FM011500 18006KT P6SM SCT050=



000
FTUS44 KOUN 312048 AAA
TAFSPS
TAF AMD
KSPS 312048Z 3121/0118 08007KT P6SM FEW100
      TEMPO 3121/3123 VRB20G35KT 5SM -TSRA SCT035CB
     FM011500 15007KT P6SM FEW100=



000
FTUS44 KOUN 312048 AAA
TAFSPS
TAF AMD
KSPS 312048Z 3121/0118 08007KT P6SM FEW100
      TEMPO 3121/3123 VRB20G35KT 5SM -TSRA SCT035CB
     FM011500 15007KT P6SM FEW100=



000
FTUS44 KOUN 312048 AAA
TAFSPS
TAF AMD
KSPS 312048Z 3121/0118 08007KT P6SM FEW100
      TEMPO 3121/3123 VRB20G35KT 5SM -TSRA SCT035CB
     FM011500 15007KT P6SM FEW100=



000
FTUS44 KOUN 312044 AAB
TAFOUN
TAF AMD
KOUN 312044Z 3121/0118 11005KT P6SM SCT050
      TEMPO 3121/3124 VRB20G35KT 5SM -TSRA SCT035CB
     FM011300 18006KT P6SM SCT050=



000
FTUS44 KOUN 312044 AAB
TAFOUN
TAF AMD
KOUN 312044Z 3121/0118 11005KT P6SM SCT050
      TEMPO 3121/3124 VRB20G35KT 5SM -TSRA SCT035CB
     FM011300 18006KT P6SM SCT050=



000
FTUS44 KOUN 312043 AAA
TAFOKC
TAF AMD
KOKC 312043Z 3121/0118 11005KT P6SM SCT050
      TEMPO 3121/3124 VRB20G35KT 5SM -TSRA SCT035CB
     FM011300 18006KT P6SM SCT050=



000
FTUS44 KOUN 311755 AAA
TAFWWR
TAF AMD
KWWR 311755Z 3118/0118 08006KT P6SM SCT050
      TEMPO 3118/3120 -TSRA BKN025CB
     FM010400 18005KT P6SM SCT050=



000
FTUS44 KOUN 311755 AAA
TAFWWR
TAF AMD
KWWR 311755Z 3118/0118 08006KT P6SM SCT050
      TEMPO 3118/3120 -TSRA BKN025CB
     FM010400 18005KT P6SM SCT050=



000
FTUS44 KOUN 311755 AAA
TAFWWR
TAF AMD
KWWR 311755Z 3118/0118 08006KT P6SM SCT050
      TEMPO 3118/3120 -TSRA BKN025CB
     FM010400 18005KT P6SM SCT050=



000
FTUS44 KOUN 311755 AAA
TAFWWR
TAF AMD
KWWR 311755Z 3118/0118 08006KT P6SM SCT050
      TEMPO 3118/3120 -TSRA BKN025CB
     FM010400 18005KT P6SM SCT050=



000
FTUS44 KOUN 311753 AAA
TAFGAG
TAF AMD
KGAG 311753Z 3118/0118 08006KT P6SM SCT050
      TEMPO 3118/3120 -TSRA BKN025CB
     FM010400 18005KT P6SM SCT050=



000
FTUS44 KOUN 311753 AAA
TAFGAG
TAF AMD
KGAG 311753Z 3118/0118 08006KT P6SM SCT050
      TEMPO 3118/3120 -TSRA BKN025CB
     FM010400 18005KT P6SM SCT050=



000
FTUS44 KOUN 311720
TAFWWR
TAF
KWWR 311720Z 3118/0118 08006KT P6SM SCT050
     FM010400 18005KT P6SM SCT050=



000
FTUS44 KOUN 311720
TAFOUN
TAF
KOUN 311720Z 3118/0118 11005KT P6SM SCT050
     FM011300 18006KT P6SM SCT050=



000
FTUS44 KOUN 311720
TAFGAG
TAF
KGAG 311720Z 3118/0118 08006KT P6SM SCT050
     FM010400 18005KT P6SM SCT050=



000
FTUS44 KOUN 311720
TAFWWR
TAF
KWWR 311720Z 3118/0118 08006KT P6SM SCT050
     FM010400 18005KT P6SM SCT050=



000
FTUS44 KOUN 311720
TAFGAG
TAF
KGAG 311720Z 3118/0118 08006KT P6SM SCT050
     FM010400 18005KT P6SM SCT050=



000
FTUS44 KOUN 311720
TAFSPS
TAF
KSPS 311720Z 3118/0118 08007KT P6SM FEW100
     FM011500 15007KT P6SM FEW100=



000
FTUS44 KOUN 311720
TAFOUN
TAF
KOUN 311720Z 3118/0118 11005KT P6SM SCT050
     FM011300 18006KT P6SM SCT050=



000
FTUS44 KOUN 311720
TAFHBR
TAF
KHBR 311720Z 3118/0118 08006KT P6SM FEW050
     FM010200 13006KT P6SM BKN050
     FM011000 20006KT P6SM BKN050=



000
FTUS44 KOUN 311720
TAFOKC
TAF
KOKC 311720Z 3118/0118 11005KT P6SM SCT050
     FM011300 18006KT P6SM SCT050=



000
FTUS44 KOUN 311720
TAFPNC
TAF
KPNC 311720Z 3118/0118 09005KT P6SM SCT050
     FM011400 18005KT P6SM SCT050=



000
FTUS44 KOUN 311720
TAFOKC
TAF
KOKC 311720Z 3118/0118 11005KT P6SM SCT050
     FM011300 18006KT P6SM SCT050=



000
FTUS44 KOUN 311720
TAFLAW
TAF
KLAW 311720Z 3118/0118 08007KT P6SM SCT050
     FM011500 18006KT P6SM SCT050=



000
FTUS44 KOUN 311720
TAFLAW
TAF
KLAW 311720Z 3118/0118 08007KT P6SM SCT050
     FM011500 18006KT P6SM SCT050=



000
FTUS44 KOUN 311720
TAFHBR
TAF
KHBR 311720Z 3118/0118 08006KT P6SM FEW050
     FM010200 13006KT P6SM BKN050
     FM011000 20006KT P6SM BKN050=



000
FTUS44 KOUN 311720
TAFSPS
TAF
KSPS 311720Z 3118/0118 08007KT P6SM FEW100
     FM011500 15007KT P6SM FEW100=



000
FTUS44 KOUN 311720
TAFPNC
TAF
KPNC 311720Z 3118/0118 09005KT P6SM SCT050
     FM011400 18005KT P6SM SCT050=



000
FTUS44 KOUN 311120
TAFWWR
TAF
KWWR 311120Z 3112/0112 06003KT P6SM BKN011
     FM311500 06006KT P6SM SCT035 BKN120=



000
FTUS44 KOUN 311120
TAFPNC
TAF
KPNC 311120Z 3112/0112 08005KT P6SM SCT050 BKN250=



000
FTUS44 KOUN 311120
TAFGAG
TAF
KGAG 311120Z 3112/0112 06003KT P6SM BKN011
     FM311500 06006KT P6SM SCT035 BKN120=



000
FTUS44 KOUN 311120
TAFPNC
TAF
KPNC 311120Z 3112/0112 08005KT P6SM SCT050 BKN250=



000
FTUS44 KOUN 311120
TAFWWR
TAF
KWWR 311120Z 3112/0112 06003KT P6SM BKN011
     FM311500 06006KT P6SM SCT035 BKN120=



000
FTUS44 KOUN 311120
TAFSPS
TAF
KSPS 311120Z 3112/0112 08007KT P6SM FEW100 SCT250=



000
FTUS44 KOUN 311120
TAFLAW
TAF
KLAW 311120Z 3112/0112 06007KT P6SM SCT080 BKN250=



000
FTUS44 KOUN 311120
TAFHBR
TAF
KHBR 311120Z 3112/0112 08007KT P6SM SCT090 BKN250=



000
FTUS44 KOUN 311120
TAFLAW
TAF
KLAW 311120Z 3112/0112 06007KT P6SM SCT080 BKN250=



000
FTUS44 KOUN 311120
TAFSPS
TAF
KSPS 311120Z 3112/0112 08007KT P6SM FEW100 SCT250=



000
FTUS44 KOUN 311120
TAFOUN
TAF
KOUN 311120Z 3112/0112 07005KT P6SM VCSH BKN080
     FM311700 11005KT P6SM SCT050=



000
FTUS44 KOUN 311120
TAFHBR
TAF
KHBR 311120Z 3112/0112 08007KT P6SM SCT090 BKN250=



000
FTUS44 KOUN 311120
TAFOKC
TAF
KOKC 311120Z 3112/0112 08006KT P6SM VCTS BKN080CB
     FM311600 11005KT P6SM SCT050=



000
FTUS44 KOUN 310529 CCA
TAFHBR
TAF COR
KHBR 310529Z 3106/0106 08010KT P6SM SCT250
      TEMPO 3106/3110 BKN016
     FM311300 08007KT P6SM FEW040 BKN100
      TEMPO 3115/3119 4SM -TSRA BKN040CB
     FM311900 09008KT P6SM SCT040 BKN100 BKN200=



000
FTUS44 KOUN 310529 CCA
TAFHBR
TAF COR
KHBR 310529Z 3106/0106 08010KT P6SM SCT250
      TEMPO 3106/3110 BKN016
     FM311300 08007KT P6SM FEW040 BKN100
      TEMPO 3115/3119 4SM -TSRA BKN040CB
     FM311900 09008KT P6SM SCT040 BKN100 BKN200=



000
FTUS44 KOUN 310529 CCA
TAFHBR
TAF COR
KHBR 310529Z 3106/0106 08010KT P6SM SCT250
      TEMPO 3106/3110 BKN016
     FM311300 08007KT P6SM FEW040 BKN100
      TEMPO 3115/3119 4SM -TSRA BKN040CB
     FM311900 09008KT P6SM SCT040 BKN100 BKN200=



000
FTUS44 KOUN 310527
TAFOKC
TAF
KOKC 310527Z 3106/0106 08006KT P6SM SCT025 SCT250
     FM311300 08007KT P6SM SCT040 BKN100
     FM311500 12007KT P6SM VCTS SCT040CB BKN120 BKN200
     FM312200 09005KT P6SM BKN040 BKN100 OVC200=



000
FTUS44 KOUN 310527
TAFOKC
TAF
KOKC 310527Z 3106/0106 08006KT P6SM SCT025 SCT250
     FM311300 08007KT P6SM SCT040 BKN100
     FM311500 12007KT P6SM VCTS SCT040CB BKN120 BKN200
     FM312200 09005KT P6SM BKN040 BKN100 OVC200=



000
FTUS44 KOUN 310527
TAFOUN
TAF
KOUN 310527Z 3106/0106 06006KT P6SM SCT020 BKN250
     FM311300 08007KT P6SM SCT040 BKN100
     FM311500 12007KT P6SM VCTS SCT040CB BKN120 BKN200
     FM312200 09005KT P6SM BKN040 BKN100 OVC200=



000
FTUS44 KOUN 310527
TAFHBR
TAF
KHBR 310527Z 3106/0106 08010KT P6SM SCT250
      TEMPO 3106/3109 BKN025
     FM311300 08007KT P6SM FEW040 BKN100
      TEMPO 3115/3119 4SM -TSRA BKN040CB
     FM311900 09008KT P6SM SCT040 BKN100 BKN200=



000
FTUS44 KOUN 310527
TAFOKC
TAF
KOKC 310527Z 3106/0106 08006KT P6SM SCT025 SCT250
     FM311300 08007KT P6SM SCT040 BKN100
     FM311500 12007KT P6SM VCTS SCT040CB BKN120 BKN200
     FM312200 09005KT P6SM BKN040 BKN100 OVC200=



000
FTUS44 KOUN 310527
TAFOKC
TAF
KOKC 310527Z 3106/0106 08006KT P6SM SCT025 SCT250
     FM311300 08007KT P6SM SCT040 BKN100
     FM311500 12007KT P6SM VCTS SCT040CB BKN120 BKN200
     FM312200 09005KT P6SM BKN040 BKN100 OVC200=



000
FTUS44 KOUN 310527
TAFGAG
TAF
KGAG 310527Z 3106/0106 11007KT P6SM SCT120 BKN250
     FM310900 14007KT P6SM SCT025 OVC100
      TEMPO 3109/3113 BKN025
     FM311800 01007KT P6SM SCT040 BKN120 BKN200 PROB30 3118/3122 5SM
      -TSRA BKN040CB=



000
FTUS44 KOUN 310527
TAFSPS
TAF
KSPS 310527Z 3106/0106 07010KT P6SM FEW100 SCT250
     FM311500 12010KT P6SM FEW040 SCT250
     FM311900 10010KT P6SM SCT040 BKN250 PROB30 3121/3124 4SM -TSRA
      BKN040CB BKN100=



000
FTUS44 KOUN 310527
TAFLAW
TAF
KLAW 310527Z 3106/0106 04009KT P6SM SKC
     FM311000 05008KT P6SM SCT050 BKN250
      TEMPO 3116/3120 4SM -TSRA BKN040CB BKN100
     FM312000 07010KT P6SM BKN060 BKN120 OVC200=



000
FTUS44 KOUN 310527
TAFLAW
TAF
KLAW 310527Z 3106/0106 04009KT P6SM SKC
     FM311000 05008KT P6SM SCT050 BKN250
      TEMPO 3116/3120 4SM -TSRA BKN040CB BKN100
     FM312000 07010KT P6SM BKN060 BKN120 OVC200=



000
FTUS44 KOUN 310527
TAFSPS
TAF
KSPS 310527Z 3106/0106 07010KT P6SM FEW100 SCT250
     FM311500 12010KT P6SM FEW040 SCT250
     FM311900 10010KT P6SM SCT040 BKN250 PROB30 3121/3124 4SM -TSRA
      BKN040CB BKN100=



000
FTUS44 KOUN 310527
TAFGAG
TAF
KGAG 310527Z 3106/0106 11007KT P6SM SCT120 BKN250
     FM310900 14007KT P6SM SCT025 OVC100
      TEMPO 3109/3113 BKN025
     FM311800 01007KT P6SM SCT040 BKN120 BKN200 PROB30 3118/3122 5SM
      -TSRA BKN040CB=



000
FTUS44 KOUN 310527
TAFWWR
TAF
KWWR 310527Z 3106/0106 12007KT P6SM SCT025
     FM310900 14007KT P6SM SCT025 OVC100
      TEMPO 3109/3113 BKN025
     FM311800 01007KT P6SM SCT040 BKN120 BKN200 PROB30 3118/3122 5SM
      -TSRA BKN040CB=



000
FTUS44 KOUN 310527
TAFWWR
TAF
KWWR 310527Z 3106/0106 12007KT P6SM SCT025
     FM310900 14007KT P6SM SCT025 OVC100
      TEMPO 3109/3113 BKN025
     FM311800 01007KT P6SM SCT040 BKN120 BKN200 PROB30 3118/3122 5SM
      -TSRA BKN040CB=



000
FTUS44 KOUN 310527
TAFPNC
TAF
KPNC 310527Z 3106/0106 05007KT P6SM SCT250
     FM311600 14007KT P6SM SCT250=



000
FTUS44 KOUN 310527
TAFHBR
TAF
KHBR 310527Z 3106/0106 08010KT P6SM SCT250
      TEMPO 3106/3109 BKN025
     FM311300 08007KT P6SM FEW040 BKN100
      TEMPO 3115/3119 4SM -TSRA BKN040CB
     FM311900 09008KT P6SM SCT040 BKN100 BKN200=



000
FTUS44 KOUN 310527
TAFPNC
TAF
KPNC 310527Z 3106/0106 05007KT P6SM SCT250
     FM311600 14007KT P6SM SCT250=



000
FTUS44 KOUN 310527
TAFOUN
TAF
KOUN 310527Z 3106/0106 06006KT P6SM SCT020 BKN250
     FM311300 08007KT P6SM SCT040 BKN100
     FM311500 12007KT P6SM VCTS SCT040CB BKN120 BKN200
     FM312200 09005KT P6SM BKN040 BKN100 OVC200=



000
FTUS44 KOUN 310527
TAFWWR
TAF
KWWR 310527Z 3106/0106 12007KT P6SM SCT025
     FM310900 14007KT P6SM SCT025 OVC100
      TEMPO 3109/3113 BKN025
     FM311800 01007KT P6SM SCT040 BKN120 BKN200 PROB30 3118/3122 5SM
      -TSRA BKN040CB=



000
FTUS44 KOUN 310527
TAFPNC
TAF
KPNC 310527Z 3106/0106 05007KT P6SM SCT250
     FM311600 14007KT P6SM SCT250=



000
FTUS44 KOUN 310527
TAFHBR
TAF
KHBR 310527Z 3106/0106 08010KT P6SM SCT250
      TEMPO 3106/3109 BKN025
     FM311300 08007KT P6SM FEW040 BKN100
      TEMPO 3115/3119 4SM -TSRA BKN040CB
     FM311900 09008KT P6SM SCT040 BKN100 BKN200=



000
FTUS44 KOUN 310527
TAFOUN
TAF
KOUN 310527Z 3106/0106 06006KT P6SM SCT020 BKN250
     FM311300 08007KT P6SM SCT040 BKN100
     FM311500 12007KT P6SM VCTS SCT040CB BKN120 BKN200
     FM312200 09005KT P6SM BKN040 BKN100 OVC200=



000
FTUS44 KOUN 310527
TAFLAW
TAF
KLAW 310527Z 3106/0106 04009KT P6SM SKC
     FM311000 05008KT P6SM SCT050 BKN250
      TEMPO 3116/3120 4SM -TSRA BKN040CB BKN100
     FM312000 07010KT P6SM BKN060 BKN120 OVC200=



000
FTUS44 KOUN 310527
TAFSPS
TAF
KSPS 310527Z 3106/0106 07010KT P6SM FEW100 SCT250
     FM311500 12010KT P6SM FEW040 SCT250
     FM311900 10010KT P6SM SCT040 BKN250 PROB30 3121/3124 4SM -TSRA
      BKN040CB BKN100=



000
FTUS44 KOUN 310527
TAFGAG
TAF
KGAG 310527Z 3106/0106 11007KT P6SM SCT120 BKN250
     FM310900 14007KT P6SM SCT025 OVC100
      TEMPO 3109/3113 BKN025
     FM311800 01007KT P6SM SCT040 BKN120 BKN200 PROB30 3118/3122 5SM
      -TSRA BKN040CB=



000
FTUS44 KOUN 310308 AAA
TAFOKC
TAF AMD
KOKC 310308Z 3103/3124 06006KT P6SM SCT025 SCT250
      TEMPO 3103/3107 BKN025
     FM311300 14007KT P6SM SCT040 BKN100 PROB30 3114/3118 4SM -TSRA
      BR BKN040CB=



000
FTUS44 KOUN 310308 AAA
TAFOKC
TAF AMD
KOKC 310308Z 3103/3124 06006KT P6SM SCT025 SCT250
      TEMPO 3103/3107 BKN025
     FM311300 14007KT P6SM SCT040 BKN100 PROB30 3114/3118 4SM -TSRA
      BR BKN040CB=



000
FTUS44 KOUN 310308 AAA
TAFOKC
TAF AMD
KOKC 310308Z 3103/3124 06006KT P6SM SCT025 SCT250
      TEMPO 3103/3107 BKN025
     FM311300 14007KT P6SM SCT040 BKN100 PROB30 3114/3118 4SM -TSRA
      BR BKN040CB=



000
FTUS44 KOUN 310308 AAB
TAFOUN
TAF AMD
KOUN 310308Z 3103/3124 09006KT P6SM SCT020 BKN250
      TEMPO 3103/3107 BKN020
     FM311300 14007KT P6SM SCT040 BKN100 PROB30 3114/3118 4SM -TSRA
      BR BKN040CB=



000
FTUS44 KOUN 310308 AAB
TAFOUN
TAF AMD
KOUN 310308Z 3103/3124 09006KT P6SM SCT020 BKN250
      TEMPO 3103/3107 BKN020
     FM311300 14007KT P6SM SCT040 BKN100 PROB30 3114/3118 4SM -TSRA
      BR BKN040CB=



000
FTUS44 KOUN 310308 AAA
TAFOKC
TAF AMD
KOKC 310308Z 3103/3124 06006KT P6SM SCT025 SCT250
      TEMPO 3103/3107 BKN025
     FM311300 14007KT P6SM SCT040 BKN100 PROB30 3114/3118 4SM -TSRA
      BR BKN040CB=



000
FTUS44 KOUN 302320
TAFOKC
TAF
KOKC 302320Z 3100/3124 05015KT P6SM SCT250
     FM310300 09006KT P6SM BKN250
     FM311300 14007KT P6SM SCT040 BKN100 PROB30 3114/3118 4SM -TSRA
      BR BKN040CB=



000
FTUS44 KOUN 302320
TAFHBR
TAF
KHBR 302320Z 3100/3124 10011KT P6SM SCT250
     FM311600 11008KT P6SM SCT040 BKN250 PROB30 3116/3120 4SM -TSRA
      BR OVC040CB=



000
FTUS44 KOUN 302320
TAFSPS
TAF
KSPS 302320Z 3100/3124 06005KT P6SM FEW100 SCT250
     FM311500 12010KT P6SM FEW040 SCT250
     FM311900 10010KT P6SM SCT040 BKN250 PROB30 3121/3124 4SM -TSRA
      BKN040CB BKN100=



000
FTUS44 KOUN 302320
TAFLAW
TAF
KLAW 302320Z 3100/3124 01016G25KT P6SM SKC
     FM310100 04011KT P6SM SKC
     FM311000 05008KT P6SM SCT050 BKN250 PROB30 3117/3121 4SM -TSRA
      BKN040CB BKN100=



000
FTUS44 KOUN 302320
TAFOUN
TAF
KOUN 302320Z 3100/3124 03011KT P6SM SCT250
     FM310300 09006KT P6SM BKN250
     FM311300 14007KT P6SM SCT040 BKN100 PROB30 3114/3118 4SM -TSRA
      BR BKN040CB=



000
FTUS44 KOUN 302320
TAFWWR
TAF
KWWR 302320Z 3100/3124 05007KT P6SM SCT025
     FM310900 14007KT P6SM SCT040 OVC100 PROB30 3114/3118 4SM -TSRA
      BKN040CB=



000
FTUS44 KOUN 302320
TAFWWR
TAF
KWWR 302320Z 3100/3124 05007KT P6SM SCT025
     FM310900 14007KT P6SM SCT040 OVC100 PROB30 3114/3118 4SM -TSRA
      BKN040CB=



000
FTUS44 KOUN 302320
TAFOKC
TAF
KOKC 302320Z 3100/3124 05015KT P6SM SCT250
     FM310300 09006KT P6SM BKN250
     FM311300 14007KT P6SM SCT040 BKN100 PROB30 3114/3118 4SM -TSRA
      BR BKN040CB=



000
FTUS44 KOUN 302320
TAFGAG
TAF
KGAG 302320Z 3100/3124 05007KT P6SM SCT250
     FM310900 14007KT P6SM SCT040 OVC100 PROB30 3114/3118 4SM -TSRA
      BKN040CB=



000
FTUS44 KOUN 302320
TAFOUN
TAF
KOUN 302320Z 3100/3124 03011KT P6SM SCT250
     FM310300 09006KT P6SM BKN250
     FM311300 14007KT P6SM SCT040 BKN100 PROB30 3114/3118 4SM -TSRA
      BR BKN040CB=



000
FTUS44 KOUN 302320
TAFLAW
TAF
KLAW 302320Z 3100/3124 01016G25KT P6SM SKC
     FM310100 04011KT P6SM SKC
     FM311000 05008KT P6SM SCT050 BKN250 PROB30 3117/3121 4SM -TSRA
      BKN040CB BKN100=



000
FTUS44 KOUN 302320
TAFGAG
TAF
KGAG 302320Z 3100/3124 05007KT P6SM SCT250
     FM310900 14007KT P6SM SCT040 OVC100 PROB30 3114/3118 4SM -TSRA
      BKN040CB=



000
FTUS44 KOUN 302320
TAFSPS
TAF
KSPS 302320Z 3100/3124 06005KT P6SM FEW100 SCT250
     FM311500 12010KT P6SM FEW040 SCT250
     FM311900 10010KT P6SM SCT040 BKN250 PROB30 3121/3124 4SM -TSRA
      BKN040CB BKN100=



000
FTUS44 KOUN 302320
TAFPNC
TAF
KPNC 302320Z 3100/3124 05007KT P6SM SCT250
     FM311600 14007KT P6SM SCT250=



000
FTUS44 KOUN 302320
TAFPNC
TAF
KPNC 302320Z 3100/3124 05007KT P6SM SCT250
     FM311600 14007KT P6SM SCT250=



000
FTUS44 KOUN 302320
TAFHBR
TAF
KHBR 302320Z 3100/3124 10011KT P6SM SCT250
     FM311600 11008KT P6SM SCT040 BKN250 PROB30 3116/3120 4SM -TSRA
      BR OVC040CB=



000
FTUS44 KOUN 301730
TAFHBR
TAF
KHBR 301730Z 3018/3118 36014G20KT P6SM SCT050 BKN120
      TEMPO 3018/3020 VRB20KT 4SM -TSRA BR BKN030CB BKN080
     FM302100 10010KT P6SM SCT050 BKN100
     FM311400 14008KT P6SM BKN040 BKN100 PROB30 3114/3118 4SM -TSRA
      BR OVC040CB=



000
FTUS44 KOUN 301730
TAFOUN
TAF
KOUN 301730Z 3018/3118 01015G20KT P6SM SCT070 BKN250
     FM302100 08007KT P6SM BKN070 BKN250
      TEMPO 3022/3102 3SM TSRA BR BKN050CB BKN100
     FM310300 08006KT P6SM SCT040 BKN100
     FM311300 14007KT P6SM SCT040 BKN100 PROB30 3114/3118 4SM -TSRA
      BR BKN040CB=



000
FTUS44 KOUN 301730
TAFPNC
TAF
KPNC 301730Z 3018/3118 02014G20KT 5SM -TSRA BR SCT025 OVC050CB
      TEMPO 3018/3021 3SM TSRA BR SCT015 OVC025CB
     FM302300 12008KT P6SM SCT040 BKN100=



000
FTUS44 KOUN 301730
TAFGAG
TAF
KGAG 301730Z 3018/3118 08010KT P6SM BKN040 OVC100
      TEMPO 3018/3020 4SM -TSRA BR BKN008 OVC040CB
     FM310900 14007KT P6SM SCT040 OVC100 PROB30 3114/3118 4SM -TSRA
      BR BKN040CB=



000
FTUS44 KOUN 301730
TAFLAW
TAF
KLAW 301730Z 3018/3118 15009KT P6SM SCT050 SCT250
      TEMPO 3019/3021 01014G20KT
     FM311000 10008KT P6SM SCT050 BKN100 PROB30 3114/3118 4SM -TSRA
      BR BKN040CB BKN100=



000
FTUS44 KOUN 301730
TAFSPS
TAF
KSPS 301730Z 3018/3118 10008KT P6SM SCT050 SCT250
     FM311400 12010KT P6SM SCT040 BKN100=



000
FTUS44 KOUN 301730
TAFWWR
TAF
KWWR 301730Z 3018/3118 07010KT P6SM BKN040 OVC100
      TEMPO 3018/3020 3SM -TSRA BR BKN008 OVC040CB
     FM310900 14008KT P6SM SCT040 OVC100 PROB30 3114/3118 4SM -TSRA
      BR BKN040CB=



000
FTUS44 KOUN 301730
TAFOKC
TAF
KOKC 301730Z 3018/3118 01015G20KT P6SM SCT070 BKN250
     FM302100 08007KT P6SM BKN070 BKN250
      TEMPO 3022/3102 3SM TSRA BR BKN050CB BKN100
     FM310300 09006KT P6SM SCT040 BKN100
     FM311300 14007KT P6SM SCT040 BKN100 PROB30 3114/3118 4SM -TSRA
      BR BKN040CB=



000
FTUS44 KOUN 301730
TAFPNC
TAF
KPNC 301730Z 3018/3118 02014G20KT 5SM -TSRA BR SCT025 OVC050CB
      TEMPO 3018/3021 3SM TSRA BR SCT015 OVC025CB
     FM302300 12008KT P6SM SCT040 BKN100=



000
FTUS44 KOUN 301730
TAFGAG
TAF
KGAG 301730Z 3018/3118 08010KT P6SM BKN040 OVC100
      TEMPO 3018/3020 4SM -TSRA BR BKN008 OVC040CB
     FM310900 14007KT P6SM SCT040 OVC100 PROB30 3114/3118 4SM -TSRA
      BR BKN040CB=



000
FTUS44 KOUN 301730
TAFLAW
TAF
KLAW 301730Z 3018/3118 15009KT P6SM SCT050 SCT250
      TEMPO 3019/3021 01014G20KT
     FM311000 10008KT P6SM SCT050 BKN100 PROB30 3114/3118 4SM -TSRA
      BR BKN040CB BKN100=



000
FTUS44 KOUN 301730
TAFWWR
TAF
KWWR 301730Z 3018/3118 07010KT P6SM BKN040 OVC100
      TEMPO 3018/3020 3SM -TSRA BR BKN008 OVC040CB
     FM310900 14008KT P6SM SCT040 OVC100 PROB30 3114/3118 4SM -TSRA
      BR BKN040CB=



000
FTUS44 KOUN 301730
TAFOUN
TAF
KOUN 301730Z 3018/3118 01015G20KT P6SM SCT070 BKN250
     FM302100 08007KT P6SM BKN070 BKN250
      TEMPO 3022/3102 3SM TSRA BR BKN050CB BKN100
     FM310300 08006KT P6SM SCT040 BKN100
     FM311300 14007KT P6SM SCT040 BKN100 PROB30 3114/3118 4SM -TSRA
      BR BKN040CB=



000
FTUS44 KOUN 301730
TAFOKC
TAF
KOKC 301730Z 3018/3118 01015G20KT P6SM SCT070 BKN250
     FM302100 08007KT P6SM BKN070 BKN250
      TEMPO 3022/3102 3SM TSRA BR BKN050CB BKN100
     FM310300 09006KT P6SM SCT040 BKN100
     FM311300 14007KT P6SM SCT040 BKN100 PROB30 3114/3118 4SM -TSRA
      BR BKN040CB=



000
FTUS44 KOUN 301730
TAFSPS
TAF
KSPS 301730Z 3018/3118 10008KT P6SM SCT050 SCT250
     FM311400 12010KT P6SM SCT040 BKN100=



000
FTUS44 KOUN 301730
TAFHBR
TAF
KHBR 301730Z 3018/3118 36014G20KT P6SM SCT050 BKN120
      TEMPO 3018/3020 VRB20KT 4SM -TSRA BR BKN030CB BKN080
     FM302100 10010KT P6SM SCT050 BKN100
     FM311400 14008KT P6SM BKN040 BKN100 PROB30 3114/3118 4SM -TSRA
      BR OVC040CB=



000
FTUS44 KOUN 301730
TAFOKC
TAF
KOKC 301730Z 3018/3118 01015G20KT P6SM SCT070 BKN250
     FM302100 08007KT P6SM BKN070 BKN250
      TEMPO 3022/3102 3SM TSRA BR BKN050CB BKN100
     FM310300 09006KT P6SM SCT040 BKN100
     FM311300 14007KT P6SM SCT040 BKN100 PROB30 3114/3118 4SM -TSRA
      BR BKN040CB=



000
FTUS44 KOUN 301730
TAFSPS
TAF
KSPS 301730Z 3018/3118 10008KT P6SM SCT050 SCT250
     FM311400 12010KT P6SM SCT040 BKN100=



000
FTUS44 KOUN 301730
TAFGAG
TAF
KGAG 301730Z 3018/3118 08010KT P6SM BKN040 OVC100
      TEMPO 3018/3020 4SM -TSRA BR BKN008 OVC040CB
     FM310900 14007KT P6SM SCT040 OVC100 PROB30 3114/3118 4SM -TSRA
      BR BKN040CB=



000
FTUS44 KOUN 301730
TAFLAW
TAF
KLAW 301730Z 3018/3118 15009KT P6SM SCT050 SCT250
      TEMPO 3019/3021 01014G20KT
     FM311000 10008KT P6SM SCT050 BKN100 PROB30 3114/3118 4SM -TSRA
      BR BKN040CB BKN100=



000
FTUS44 KOUN 301730
TAFWWR
TAF
KWWR 301730Z 3018/3118 07010KT P6SM BKN040 OVC100
      TEMPO 3018/3020 3SM -TSRA BR BKN008 OVC040CB
     FM310900 14008KT P6SM SCT040 OVC100 PROB30 3114/3118 4SM -TSRA
      BR BKN040CB=



000
FTUS44 KOUN 301730
TAFPNC
TAF
KPNC 301730Z 3018/3118 02014G20KT 5SM -TSRA BR SCT025 OVC050CB
      TEMPO 3018/3021 3SM TSRA BR SCT015 OVC025CB
     FM302300 12008KT P6SM SCT040 BKN100=



000
FTUS44 KOUN 301730
TAFHBR
TAF
KHBR 301730Z 3018/3118 36014G20KT P6SM SCT050 BKN120
      TEMPO 3018/3020 VRB20KT 4SM -TSRA BR BKN030CB BKN080
     FM302100 10010KT P6SM SCT050 BKN100
     FM311400 14008KT P6SM BKN040 BKN100 PROB30 3114/3118 4SM -TSRA
      BR OVC040CB=



000
FTUS44 KOUN 301730
TAFOUN
TAF
KOUN 301730Z 3018/3118 01015G20KT P6SM SCT070 BKN250
     FM302100 08007KT P6SM BKN070 BKN250
      TEMPO 3022/3102 3SM TSRA BR BKN050CB BKN100
     FM310300 08006KT P6SM SCT040 BKN100
     FM311300 14007KT P6SM SCT040 BKN100 PROB30 3114/3118 4SM -TSRA
      BR BKN040CB=



000
FTUS44 KOUN 301730
TAFLAW
TAF
KLAW 301730Z 3018/3118 15009KT P6SM SCT050 SCT250
      TEMPO 3019/3021 01014G20KT
     FM311000 10008KT P6SM SCT050 BKN100 PROB30 3114/3118 4SM -TSRA
      BR BKN040CB BKN100=



000
FTUS44 KOUN 301730
TAFGAG
TAF
KGAG 301730Z 3018/3118 08010KT P6SM BKN040 OVC100
      TEMPO 3018/3020 4SM -TSRA BR BKN008 OVC040CB
     FM310900 14007KT P6SM SCT040 OVC100 PROB30 3114/3118 4SM -TSRA
      BR BKN040CB=



000
FTUS44 KOUN 301730
TAFOUN
TAF
KOUN 301730Z 3018/3118 01015G20KT P6SM SCT070 BKN250
     FM302100 08007KT P6SM BKN070 BKN250
      TEMPO 3022/3102 3SM TSRA BR BKN050CB BKN100
     FM310300 08006KT P6SM SCT040 BKN100
     FM311300 14007KT P6SM SCT040 BKN100 PROB30 3114/3118 4SM -TSRA
      BR BKN040CB=



000
FTUS44 KOUN 301730
TAFHBR
TAF
KHBR 301730Z 3018/3118 36014G20KT P6SM SCT050 BKN120
      TEMPO 3018/3020 VRB20KT 4SM -TSRA BR BKN030CB BKN080
     FM302100 10010KT P6SM SCT050 BKN100
     FM311400 14008KT P6SM BKN040 BKN100 PROB30 3114/3118 4SM -TSRA
      BR OVC040CB=



000
FTUS44 KOUN 301730
TAFPNC
TAF
KPNC 301730Z 3018/3118 02014G20KT 5SM -TSRA BR SCT025 OVC050CB
      TEMPO 3018/3021 3SM TSRA BR SCT015 OVC025CB
     FM302300 12008KT P6SM SCT040 BKN100=



000
FTUS44 KOUN 301730
TAFSPS
TAF
KSPS 301730Z 3018/3118 10008KT P6SM SCT050 SCT250
     FM311400 12010KT P6SM SCT040 BKN100=



000
FTUS44 KOUN 301730
TAFWWR
TAF
KWWR 301730Z 3018/3118 07010KT P6SM BKN040 OVC100
      TEMPO 3018/3020 3SM -TSRA BR BKN008 OVC040CB
     FM310900 14008KT P6SM SCT040 OVC100 PROB30 3114/3118 4SM -TSRA
      BR BKN040CB=



000
FTUS44 KOUN 301730
TAFOKC
TAF
KOKC 301730Z 3018/3118 01015G20KT P6SM SCT070 BKN250
     FM302100 08007KT P6SM BKN070 BKN250
      TEMPO 3022/3102 3SM TSRA BR BKN050CB BKN100
     FM310300 09006KT P6SM SCT040 BKN100
     FM311300 14007KT P6SM SCT040 BKN100 PROB30 3114/3118 4SM -TSRA
      BR BKN040CB=



000
FTUS44 KOUN 301645 AAB
TAFWWR
TAF AMD
KWWR 301645Z 3017/3112 09006KT P6SM OVC040
      TEMPO 3017/3020 VRB35KT 4SM -TSRA BR OVC008CB
     FM302100 09006KT P6SM SCT040 OVC100=



000
FTUS44 KOUN 301640 AAB
TAFOUN
TAF AMD
KOUN 301640Z 3017/3112 VRB05KT P6SM SCT070 SCT250
     FM301740 02015G20KT P6SM SCT070 SCT250
     FM302100 07007KT P6SM SCT050 BKN250
     FM310300 08005KT P6SM SCT040 BKN100 PROB30 3106/3112 4SM -TSRA
      BKN030CB OVC100=



000
FTUS44 KOUN 301640 AAB
TAFOUN
TAF AMD
KOUN 301640Z 3017/3112 VRB05KT P6SM SCT070 SCT250
     FM301740 02015G20KT P6SM SCT070 SCT250
     FM302100 07007KT P6SM SCT050 BKN250
     FM310300 08005KT P6SM SCT040 BKN100 PROB30 3106/3112 4SM -TSRA
      BKN030CB OVC100=



000
FTUS44 KOUN 301640 AAB
TAFOUN
TAF AMD
KOUN 301640Z 3017/3112 VRB05KT P6SM SCT070 SCT250
     FM301740 02015G20KT P6SM SCT070 SCT250
     FM302100 07007KT P6SM SCT050 BKN250
     FM310300 08005KT P6SM SCT040 BKN100 PROB30 3106/3112 4SM -TSRA
      BKN030CB OVC100=



000
FTUS44 KOUN 301636 AAA
TAFOKC
TAF AMD
KOKC 301636Z 3017/3112 03017G22KT P6SM SCT070 SCT250
     FM302100 08007KT P6SM SCT050 BKN250
     FM310300 09005KT P6SM SCT040 BKN100 PROB30 3106/3112 4SM -TSRA
      BKN030CB OVC100=



000
FTUS44 KOUN 301249 AAA
TAFWWR
TAF AMD
KWWR 301249Z 3013/3112 VRB04KT P6SM OVC010
      TEMPO 3013/3016 VRB35KT 3SM -TSRA BR OVC008CB
     FM301600 09006KT P6SM SCT040 OVC100=



000
FTUS44 KOUN 301249 AAA
TAFWWR
TAF AMD
KWWR 301249Z 3013/3112 VRB04KT P6SM OVC010
      TEMPO 3013/3016 VRB35KT 3SM -TSRA BR OVC008CB
     FM301600 09006KT P6SM SCT040 OVC100=



000
FTUS44 KOUN 301249 AAA
TAFWWR
TAF AMD
KWWR 301249Z 3013/3112 VRB04KT P6SM OVC010
      TEMPO 3013/3016 VRB35KT 3SM -TSRA BR OVC008CB
     FM301600 09006KT P6SM SCT040 OVC100=



000
FTUS44 KOUN 301249 AAA
TAFWWR
TAF AMD
KWWR 301249Z 3013/3112 VRB04KT P6SM OVC010
      TEMPO 3013/3016 VRB35KT 3SM -TSRA BR OVC008CB
     FM301600 09006KT P6SM SCT040 OVC100=



000
FTUS44 KOUN 301124
TAFLAW
TAF
KLAW 301124Z 3012/3112 VRB05KT P6SM SCT150
     FM301800 08007KT P6SM SCT050 SCT250 PROB30 3021/3103 4SM TSRA
      BKN050CB BKN100=



000
FTUS44 KOUN 301124
TAFSPS
TAF
KSPS 301124Z 3012/3112 VRB05KT P6SM SCT150
     FM301500 10008KT P6SM SCT050 SCT250=



000
FTUS44 KOUN 301124
TAFGAG
TAF
KGAG 301124Z 3012/3112 VRB05KT P6SM BKN009 BKN100 BKN250
     FM301500 09006KT P6SM SCT040 OVC100 PROB30 3021/3103 4SM TSRA
      BKN040CB OVC100=



000
FTUS44 KOUN 301124
TAFPNC
TAF
KPNC 301124Z 3012/3112 09008KT P6SM VCSH SCT080 BKN150
     FM301400 07012KT 5SM -TSRA BR OVC080CB
      TEMPO 3014/3017 1SM TSRA BR OVC025CB
     FM301800 09007KT P6SM SCT100 BKN250=



000
FTUS44 KOUN 301124
TAFOKC
TAF
KOKC 301124Z 3012/3112 09006KT P6SM SCT070 SCT250
     FM302100 08007KT P6SM SCT050 BKN250 PROB30 3021/3103 3SM TSRA
      BKN050CB BKN100
     FM310300 09005KT P6SM SCT040 BKN100 PROB30 3106/3112 4SM -TSRA
      BKN030CB OVC100=



000
FTUS44 KOUN 301124
TAFOUN
TAF
KOUN 301124Z 3012/3112 08006KT P6SM SCT070 SCT250
     FM302100 07007KT P6SM SCT050 BKN250 PROB30 3021/3103 3SM TSRA
      BKN050CB BKN100
     FM310300 08005KT P6SM SCT040 BKN100 PROB30 3106/3112 4SM -TSRA
      BKN030CB OVC100=



000
FTUS44 KOUN 301124
TAFHBR
TAF
KHBR 301124Z 3012/3112 08007KT P6SM SCT080 BKN120
     FM301500 07008KT P6SM SCT120 BKN250 PROB30 3021/3103 3SM TSRA
      BKN030CB BKN100=



000
FTUS44 KOUN 301124
TAFWWR
TAF
KWWR 301124Z 3012/3112 VRB04KT P6SM OVC010
     FM301500 09006KT P6SM SCT040 OVC100 PROB30 3021/3103 4SM TSRA
      BKN040CB OVC100=



000
FTUS44 KOUN 301124
TAFOUN
TAF
KOUN 301124Z 3012/3112 08006KT P6SM SCT070 SCT250
     FM302100 07007KT P6SM SCT050 BKN250 PROB30 3021/3103 3SM TSRA
      BKN050CB BKN100
     FM310300 08005KT P6SM SCT040 BKN100 PROB30 3106/3112 4SM -TSRA
      BKN030CB OVC100=



000
FTUS44 KOUN 301124
TAFHBR
TAF
KHBR 301124Z 3012/3112 08007KT P6SM SCT080 BKN120
     FM301500 07008KT P6SM SCT120 BKN250 PROB30 3021/3103 3SM TSRA
      BKN030CB BKN100=



000
FTUS44 KOUN 301124
TAFGAG
TAF
KGAG 301124Z 3012/3112 VRB05KT P6SM BKN009 BKN100 BKN250
     FM301500 09006KT P6SM SCT040 OVC100 PROB30 3021/3103 4SM TSRA
      BKN040CB OVC100=



000
FTUS44 KOUN 301124
TAFPNC
TAF
KPNC 301124Z 3012/3112 09008KT P6SM VCSH SCT080 BKN150
     FM301400 07012KT 5SM -TSRA BR OVC080CB
      TEMPO 3014/3017 1SM TSRA BR OVC025CB
     FM301800 09007KT P6SM SCT100 BKN250=



000
FTUS44 KOUN 301124
TAFWWR
TAF
KWWR 301124Z 3012/3112 VRB04KT P6SM OVC010
     FM301500 09006KT P6SM SCT040 OVC100 PROB30 3021/3103 4SM TSRA
      BKN040CB OVC100=



000
FTUS44 KOUN 301124
TAFLAW
TAF
KLAW 301124Z 3012/3112 VRB05KT P6SM SCT150
     FM301800 08007KT P6SM SCT050 SCT250 PROB30 3021/3103 4SM TSRA
      BKN050CB BKN100=



000
FTUS44 KOUN 301124
TAFSPS
TAF
KSPS 301124Z 3012/3112 VRB05KT P6SM SCT150
     FM301500 10008KT P6SM SCT050 SCT250=



000
FTUS44 KOUN 301124
TAFOKC
TAF
KOKC 301124Z 3012/3112 09006KT P6SM SCT070 SCT250
     FM302100 08007KT P6SM SCT050 BKN250 PROB30 3021/3103 3SM TSRA
      BKN050CB BKN100
     FM310300 09005KT P6SM SCT040 BKN100 PROB30 3106/3112 4SM -TSRA
      BKN030CB OVC100=



000
FTUS44 KOUN 301124
TAFLAW
TAF
KLAW 301124Z 3012/3112 VRB05KT P6SM SCT150
     FM301800 08007KT P6SM SCT050 SCT250 PROB30 3021/3103 4SM TSRA
      BKN050CB BKN100=



000
FTUS44 KOUN 301124
TAFPNC
TAF
KPNC 301124Z 3012/3112 09008KT P6SM VCSH SCT080 BKN150
     FM301400 07012KT 5SM -TSRA BR OVC080CB
      TEMPO 3014/3017 1SM TSRA BR OVC025CB
     FM301800 09007KT P6SM SCT100 BKN250=



000
FTUS44 KOUN 301124
TAFOKC
TAF
KOKC 301124Z 3012/3112 09006KT P6SM SCT070 SCT250
     FM302100 08007KT P6SM SCT050 BKN250 PROB30 3021/3103 3SM TSRA
      BKN050CB BKN100
     FM310300 09005KT P6SM SCT040 BKN100 PROB30 3106/3112 4SM -TSRA
      BKN030CB OVC100=



000
FTUS44 KOUN 301124
TAFHBR
TAF
KHBR 301124Z 3012/3112 08007KT P6SM SCT080 BKN120
     FM301500 07008KT P6SM SCT120 BKN250 PROB30 3021/3103 3SM TSRA
      BKN030CB BKN100=



000
FTUS44 KOUN 301124
TAFGAG
TAF
KGAG 301124Z 3012/3112 VRB05KT P6SM BKN009 BKN100 BKN250
     FM301500 09006KT P6SM SCT040 OVC100 PROB30 3021/3103 4SM TSRA
      BKN040CB OVC100=



000
FTUS44 KOUN 301124
TAFOUN
TAF
KOUN 301124Z 3012/3112 08006KT P6SM SCT070 SCT250
     FM302100 07007KT P6SM SCT050 BKN250 PROB30 3021/3103 3SM TSRA
      BKN050CB BKN100
     FM310300 08005KT P6SM SCT040 BKN100 PROB30 3106/3112 4SM -TSRA
      BKN030CB OVC100=



000
FTUS44 KOUN 301124
TAFWWR
TAF
KWWR 301124Z 3012/3112 VRB04KT P6SM OVC010
     FM301500 09006KT P6SM SCT040 OVC100 PROB30 3021/3103 4SM TSRA
      BKN040CB OVC100=



000
FTUS44 KOUN 301124
TAFSPS
TAF
KSPS 301124Z 3012/3112 VRB05KT P6SM SCT150
     FM301500 10008KT P6SM SCT050 SCT250=



000
FTUS44 KOUN 301124
TAFPNC
TAF
KPNC 301124Z 3012/3112 09008KT P6SM VCSH SCT080 BKN150
     FM301400 07012KT 5SM -TSRA BR OVC080CB
      TEMPO 3014/3017 1SM TSRA BR OVC025CB
     FM301800 09007KT P6SM SCT100 BKN250=



000
FTUS44 KOUN 301124
TAFWWR
TAF
KWWR 301124Z 3012/3112 VRB04KT P6SM OVC010
     FM301500 09006KT P6SM SCT040 OVC100 PROB30 3021/3103 4SM TSRA
      BKN040CB OVC100=



000
FTUS44 KOUN 301124
TAFSPS
TAF
KSPS 301124Z 3012/3112 VRB05KT P6SM SCT150
     FM301500 10008KT P6SM SCT050 SCT250=



000
FTUS44 KOUN 301124
TAFOKC
TAF
KOKC 301124Z 3012/3112 09006KT P6SM SCT070 SCT250
     FM302100 08007KT P6SM SCT050 BKN250 PROB30 3021/3103 3SM TSRA
      BKN050CB BKN100
     FM310300 09005KT P6SM SCT040 BKN100 PROB30 3106/3112 4SM -TSRA
      BKN030CB OVC100=



000
FTUS44 KOUN 301124
TAFHBR
TAF
KHBR 301124Z 3012/3112 08007KT P6SM SCT080 BKN120
     FM301500 07008KT P6SM SCT120 BKN250 PROB30 3021/3103 3SM TSRA
      BKN030CB BKN100=



000
FTUS44 KOUN 301124
TAFGAG
TAF
KGAG 301124Z 3012/3112 VRB05KT P6SM BKN009 BKN100 BKN250
     FM301500 09006KT P6SM SCT040 OVC100 PROB30 3021/3103 4SM TSRA
      BKN040CB OVC100=



000
FTUS44 KOUN 301124
TAFLAW
TAF
KLAW 301124Z 3012/3112 VRB05KT P6SM SCT150
     FM301800 08007KT P6SM SCT050 SCT250 PROB30 3021/3103 4SM TSRA
      BKN050CB BKN100=



000
FTUS44 KOUN 301124
TAFOUN
TAF
KOUN 301124Z 3012/3112 08006KT P6SM SCT070 SCT250
     FM302100 07007KT P6SM SCT050 BKN250 PROB30 3021/3103 3SM TSRA
      BKN050CB BKN100
     FM310300 08005KT P6SM SCT040 BKN100 PROB30 3106/3112 4SM -TSRA
      BKN030CB OVC100=



000
FTUS44 KOUN 301047 AAA
TAFPNC
TAF AMD
KPNC 301047Z 3011/3106 07010KT P6SM VCSH SCT080 BKN150
     FM301400 07012KT 5SM -TSRA BR OVC080CB
      TEMPO 3014/3017 1SM TSRA BR OVC025CB
     FM301800 10008KT P6SM SCT100 BKN250=



000
FTUS44 KOUN 301047 AAA
TAFPNC
TAF AMD
KPNC 301047Z 3011/3106 07010KT P6SM VCSH SCT080 BKN150
     FM301400 07012KT 5SM -TSRA BR OVC080CB
      TEMPO 3014/3017 1SM TSRA BR OVC025CB
     FM301800 10008KT P6SM SCT100 BKN250=



000
FTUS44 KOUN 301047 AAA
TAFPNC
TAF AMD
KPNC 301047Z 3011/3106 07010KT P6SM VCSH SCT080 BKN150
     FM301400 07012KT 5SM -TSRA BR OVC080CB
      TEMPO 3014/3017 1SM TSRA BR OVC025CB
     FM301800 10008KT P6SM SCT100 BKN250=



000
FTUS44 KOUN 301047 AAA
TAFPNC
TAF AMD
KPNC 301047Z 3011/3106 07010KT P6SM VCSH SCT080 BKN150
     FM301400 07012KT 5SM -TSRA BR OVC080CB
      TEMPO 3014/3017 1SM TSRA BR OVC025CB
     FM301800 10008KT P6SM SCT100 BKN250=



000
FTUS44 KOUN 300526
TAFLAW
TAF
KLAW 300526Z 3006/3106 11008KT P6SM SCT200
     FM301800 07006KT P6SM SCT050=



000
FTUS44 KOUN 300526
TAFGAG
TAF
KGAG 300526Z 3006/3106 04007KT P6SM SCT030 BKN100 BKN200
     FM301400 07009KT P6SM BKN150 PROB30 3015/3021 4SM TSRA
      BKN040CB=



000
FTUS44 KOUN 300526
TAFOUN
TAF
KOUN 300526Z 3006/3106 12006KT P6SM SCT050 SCT250
     FM302100 06007KT P6SM SCT050 PROB30 3021/3103 3SM -TSRA
      BKN025CB=



000
FTUS44 KOUN 300526
TAFHBR
TAF
KHBR 300526Z 3006/3106 02009KT P6SM SCT080 BKN120
     FM301500 06009KT P6SM SCT120 PROB30 3020/3102 3SM -TSRA
      BKN030CB=



000
FTUS44 KOUN 300526
TAFSPS
TAF
KSPS 300526Z 3006/3106 12008KT P6SM SCT200
     FM301800 11006KT P6SM SCT050=



000
FTUS44 KOUN 300526
TAFOKC
TAF
KOKC 300526Z 3006/3106 07006KT P6SM SCT050 SCT250
     FM302100 08007KT P6SM SCT050 PROB30 3021/3103 3SM -TSRA
      BKN025CB=



000
FTUS44 KOUN 300526
TAFWWR
TAF
KWWR 300526Z 3006/3106 04007KT P6SM SCT030 BKN100 BKN200
     FM301400 07009KT P6SM BKN150 PROB30 3015/3021 4SM TSRA
      BKN040CB=



000
FTUS44 KOUN 300526
TAFOUN
TAF
KOUN 300526Z 3006/3106 12006KT P6SM SCT050 SCT250
     FM302100 06007KT P6SM SCT050 PROB30 3021/3103 3SM -TSRA
      BKN025CB=



000
FTUS44 KOUN 300526
TAFOUN
TAF
KOUN 300526Z 3006/3106 12006KT P6SM SCT050 SCT250
     FM302100 06007KT P6SM SCT050 PROB30 3021/3103 3SM -TSRA
      BKN025CB=



000
FTUS44 KOUN 300526
TAFWWR
TAF
KWWR 300526Z 3006/3106 04007KT P6SM SCT030 BKN100 BKN200
     FM301400 07009KT P6SM BKN150 PROB30 3015/3021 4SM TSRA
      BKN040CB=



000
FTUS44 KOUN 300526
TAFOKC
TAF
KOKC 300526Z 3006/3106 07006KT P6SM SCT050 SCT250
     FM302100 08007KT P6SM SCT050 PROB30 3021/3103 3SM -TSRA
      BKN025CB=



000
FTUS44 KOUN 300526
TAFPNC
TAF
KPNC 300526Z 3006/3106 04010KT P6SM SCT080 BKN150
     FM301500 07009KT P6SM BKN150 PROB30 3015/3021 4SM TSRA
      BKN040CB=



000
FTUS44 KOUN 300526
TAFGAG
TAF
KGAG 300526Z 3006/3106 04007KT P6SM SCT030 BKN100 BKN200
     FM301400 07009KT P6SM BKN150 PROB30 3015/3021 4SM TSRA
      BKN040CB=



000
FTUS44 KOUN 300526
TAFGAG
TAF
KGAG 300526Z 3006/3106 04007KT P6SM SCT030 BKN100 BKN200
     FM301400 07009KT P6SM BKN150 PROB30 3015/3021 4SM TSRA
      BKN040CB=



000
FTUS44 KOUN 300526
TAFHBR
TAF
KHBR 300526Z 3006/3106 02009KT P6SM SCT080 BKN120
     FM301500 06009KT P6SM SCT120 PROB30 3020/3102 3SM -TSRA
      BKN030CB=



000
FTUS44 KOUN 300526
TAFPNC
TAF
KPNC 300526Z 3006/3106 04010KT P6SM SCT080 BKN150
     FM301500 07009KT P6SM BKN150 PROB30 3015/3021 4SM TSRA
      BKN040CB=



000
FTUS44 KOUN 300526
TAFWWR
TAF
KWWR 300526Z 3006/3106 04007KT P6SM SCT030 BKN100 BKN200
     FM301400 07009KT P6SM BKN150 PROB30 3015/3021 4SM TSRA
      BKN040CB=



000
FTUS44 KOUN 300526
TAFSPS
TAF
KSPS 300526Z 3006/3106 12008KT P6SM SCT200
     FM301800 11006KT P6SM SCT050=



000
FTUS44 KOUN 300526
TAFLAW
TAF
KLAW 300526Z 3006/3106 11008KT P6SM SCT200
     FM301800 07006KT P6SM SCT050=



000
FTUS44 KOUN 300526
TAFHBR
TAF
KHBR 300526Z 3006/3106 02009KT P6SM SCT080 BKN120
     FM301500 06009KT P6SM SCT120 PROB30 3020/3102 3SM -TSRA
      BKN030CB=



000
FTUS44 KOUN 300526
TAFPNC
TAF
KPNC 300526Z 3006/3106 04010KT P6SM SCT080 BKN150
     FM301500 07009KT P6SM BKN150 PROB30 3015/3021 4SM TSRA
      BKN040CB=



000
FTUS44 KOUN 300526
TAFLAW
TAF
KLAW 300526Z 3006/3106 11008KT P6SM SCT200
     FM301800 07006KT P6SM SCT050=



000
FTUS44 KOUN 300526
TAFSPS
TAF
KSPS 300526Z 3006/3106 12008KT P6SM SCT200
     FM301800 11006KT P6SM SCT050=



000
FTUS44 KOUN 300526
TAFWWR
TAF
KWWR 300526Z 3006/3106 04007KT P6SM SCT030 BKN100 BKN200
     FM301400 07009KT P6SM BKN150 PROB30 3015/3021 4SM TSRA
      BKN040CB=



000
FTUS44 KOUN 300526
TAFGAG
TAF
KGAG 300526Z 3006/3106 04007KT P6SM SCT030 BKN100 BKN200
     FM301400 07009KT P6SM BKN150 PROB30 3015/3021 4SM TSRA
      BKN040CB=



000
FTUS44 KOUN 300526
TAFOUN
TAF
KOUN 300526Z 3006/3106 12006KT P6SM SCT050 SCT250
     FM302100 06007KT P6SM SCT050 PROB30 3021/3103 3SM -TSRA
      BKN025CB=



000
FTUS44 KOUN 300526
TAFHBR
TAF
KHBR 300526Z 3006/3106 02009KT P6SM SCT080 BKN120
     FM301500 06009KT P6SM SCT120 PROB30 3020/3102 3SM -TSRA
      BKN030CB=



000
FTUS44 KOUN 300526
TAFLAW
TAF
KLAW 300526Z 3006/3106 11008KT P6SM SCT200
     FM301800 07006KT P6SM SCT050=



000
FTUS44 KOUN 300526
TAFOKC
TAF
KOKC 300526Z 3006/3106 07006KT P6SM SCT050 SCT250
     FM302100 08007KT P6SM SCT050 PROB30 3021/3103 3SM -TSRA
      BKN025CB=



000
FTUS44 KOUN 300526
TAFSPS
TAF
KSPS 300526Z 3006/3106 12008KT P6SM SCT200
     FM301800 11006KT P6SM SCT050=



000
FTUS44 KOUN 300526
TAFPNC
TAF
KPNC 300526Z 3006/3106 04010KT P6SM SCT080 BKN150
     FM301500 07009KT P6SM BKN150 PROB30 3015/3021 4SM TSRA
      BKN040CB=



000
FTUS44 KOUN 300526
TAFOKC
TAF
KOKC 300526Z 3006/3106 07006KT P6SM SCT050 SCT250
     FM302100 08007KT P6SM SCT050 PROB30 3021/3103 3SM -TSRA
      BKN025CB=



000
FTUS44 KOUN 300409 AAA
TAFHBR
TAF AMD
KHBR 300409Z 3004/3024 04008KT P6SM SCT080 BKN120
      TEMPO 3004/3005 2SM TSRA BKN030CB
     FM301500 06009KT P6SM SCT120 PROB30 3020/3024 3SM -TSRA
      BKN030CB=



000
FTUS44 KOUN 300409 AAA
TAFHBR
TAF AMD
KHBR 300409Z 3004/3024 04008KT P6SM SCT080 BKN120
      TEMPO 3004/3005 2SM TSRA BKN030CB
     FM301500 06009KT P6SM SCT120 PROB30 3020/3024 3SM -TSRA
      BKN030CB=



000
FTUS44 KOUN 300409 AAA
TAFHBR
TAF AMD
KHBR 300409Z 3004/3024 04008KT P6SM SCT080 BKN120
      TEMPO 3004/3005 2SM TSRA BKN030CB
     FM301500 06009KT P6SM SCT120 PROB30 3020/3024 3SM -TSRA
      BKN030CB=



000
FTUS44 KOUN 292324
TAFHBR
TAF
KHBR 292324Z 3000/3024 14010KT P6SM SCT100 BKN150
      TEMPO 3000/3002 2SM TSRA BKN040CB
     FM300300 10008KT P6SM SCT080 BKN120
     FM301500 06009KT P6SM SCT120 PROB30 3020/3024 3SM -TSRA
      BKN030CB=



000
FTUS44 KOUN 292324
TAFGAG
TAF
KGAG 292324Z 3000/3024 05016G21KT P6SM SCT080 BKN150
      TEMPO 3000/3003 VRB40KT 2SM -TSRA BKN040CB
     FM300500 04007KT P6SM SCT020 BKN100 OVC250 PROB30 3009/3014 2SM
      -TSRA BKN030CB OVC080
     FM301400 07009KT P6SM BKN150 PROB30 3020/3024 4SM TSRA
      BKN040CB=



000
FTUS44 KOUN 292324
TAFOUN
TAF
KOUN 292324Z 3000/3024 14007KT P6SM SCT200
     FM301200 05006KT P6SM BKN250 PROB30 3018/3024 P6SM -TSRA
      BKN050CB=



000
FTUS44 KOUN 292324
TAFWWR
TAF
KWWR 292324Z 3000/3024 04010G20KT P6SM SCT080 BKN150
      TEMPO 3000/3003 VRB40KT 2SM -TSRA BKN040CB
     FM300500 04007KT P6SM BKN100 OVC250 PROB30 3009/3014 2SM -TSRA
      BKN030CB OVC080
     FM301400 07009KT P6SM BKN150 PROB30 3020/3024 4SM TSRA
      BKN040CB=



000
FTUS44 KOUN 292324
TAFLAW
TAF
KLAW 292324Z 3000/3024 14008KT P6SM SCT200
     FM301800 11006KT P6SM SCT050=



000
FTUS44 KOUN 292324
TAFOKC
TAF
KOKC 292324Z 3000/3024 14007KT P6SM SCT200
     FM301200 05006KT P6SM BKN250 PROB30 3018/3024 P6SM -TSRA
      BKN050CB=



000
FTUS44 KOUN 292324
TAFSPS
TAF
KSPS 292324Z 3000/3024 12008KT P6SM SCT200
     FM301800 11006KT P6SM SCT050=



000
FTUS44 KOUN 292324
TAFGAG
TAF
KGAG 292324Z 3000/3024 05016G21KT P6SM SCT080 BKN150
      TEMPO 3000/3003 VRB40KT 2SM -TSRA BKN040CB
     FM300500 04007KT P6SM SCT020 BKN100 OVC250 PROB30 3009/3014 2SM
      -TSRA BKN030CB OVC080
     FM301400 07009KT P6SM BKN150 PROB30 3020/3024 4SM TSRA
      BKN040CB=



000
FTUS44 KOUN 292324
TAFOUN
TAF
KOUN 292324Z 3000/3024 14007KT P6SM SCT200
     FM301200 05006KT P6SM BKN250 PROB30 3018/3024 P6SM -TSRA
      BKN050CB=



000
FTUS44 KOUN 292324
TAFPNC
TAF
KPNC 292324Z 3000/3024 35015G25KT P6SM SCT120 BKN200
      TEMPO 3000/3002 5SM -TSRA BKN040CB
     FM300400 09012KT P6SM SCT080 BKN150 PROB30 3009/3015 6SM -SHRA
      BKN030 OVC080
     FM301500 07009KT P6SM BKN150 PROB30 3020/3024 4SM TSRA
      BKN040CB=



000
FTUS44 KOUN 292324
TAFSPS
TAF
KSPS 292324Z 3000/3024 12008KT P6SM SCT200
     FM301800 11006KT P6SM SCT050=



000
FTUS44 KOUN 292324
TAFHBR
TAF
KHBR 292324Z 3000/3024 14010KT P6SM SCT100 BKN150
      TEMPO 3000/3002 2SM TSRA BKN040CB
     FM300300 10008KT P6SM SCT080 BKN120
     FM301500 06009KT P6SM SCT120 PROB30 3020/3024 3SM -TSRA
      BKN030CB=



000
FTUS44 KOUN 292324
TAFPNC
TAF
KPNC 292324Z 3000/3024 35015G25KT P6SM SCT120 BKN200
      TEMPO 3000/3002 5SM -TSRA BKN040CB
     FM300400 09012KT P6SM SCT080 BKN150 PROB30 3009/3015 6SM -SHRA
      BKN030 OVC080
     FM301500 07009KT P6SM BKN150 PROB30 3020/3024 4SM TSRA
      BKN040CB=



000
FTUS44 KOUN 292324
TAFOKC
TAF
KOKC 292324Z 3000/3024 14007KT P6SM SCT200
     FM301200 05006KT P6SM BKN250 PROB30 3018/3024 P6SM -TSRA
      BKN050CB=



000
FTUS44 KOUN 292324
TAFWWR
TAF
KWWR 292324Z 3000/3024 04010G20KT P6SM SCT080 BKN150
      TEMPO 3000/3003 VRB40KT 2SM -TSRA BKN040CB
     FM300500 04007KT P6SM BKN100 OVC250 PROB30 3009/3014 2SM -TSRA
      BKN030CB OVC080
     FM301400 07009KT P6SM BKN150 PROB30 3020/3024 4SM TSRA
      BKN040CB=



000
FTUS44 KOUN 292324
TAFLAW
TAF
KLAW 292324Z 3000/3024 14008KT P6SM SCT200
     FM301800 11006KT P6SM SCT050=



000
FTUS44 KOUN 292050 AAB
TAFHBR
TAF AMD
KHBR 292050Z 2921/3018 08007KT P6SM VCTS SCT050CB SCT250
      TEMPO 2921/2922 19018G25KT
     FM300000 10007KT P6SM SCT250
     FM301400 09010KT P6SM SCT080 BKN120=



000
FTUS44 KOUN 292050 AAB
TAFHBR
TAF AMD
KHBR 292050Z 2921/3018 08007KT P6SM VCTS SCT050CB SCT250
      TEMPO 2921/2922 19018G25KT
     FM300000 10007KT P6SM SCT250
     FM301400 09010KT P6SM SCT080 BKN120=



000
FTUS44 KOUN 292050 AAB
TAFHBR
TAF AMD
KHBR 292050Z 2921/3018 08007KT P6SM VCTS SCT050CB SCT250
      TEMPO 2921/2922 19018G25KT
     FM300000 10007KT P6SM SCT250
     FM301400 09010KT P6SM SCT080 BKN120=



000
FTUS44 KOUN 292050 AAB
TAFHBR
TAF AMD
KHBR 292050Z 2921/3018 08007KT P6SM VCTS SCT050CB SCT250
      TEMPO 2921/2922 19018G25KT
     FM300000 10007KT P6SM SCT250
     FM301400 09010KT P6SM SCT080 BKN120=



000
FTUS44 KOUN 292032 AAA
TAFHBR
TAF AMD
KHBR 292032Z 2921/3018 08007KT P6SM VCTS SCT050CB SCT250
     FM300000 10007KT P6SM SCT250
     FM301400 09010KT P6SM SCT080 BKN120=



000
FTUS44 KOUN 292032 AAA
TAFHBR
TAF AMD
KHBR 292032Z 2921/3018 08007KT P6SM VCTS SCT050CB SCT250
     FM300000 10007KT P6SM SCT250
     FM301400 09010KT P6SM SCT080 BKN120=



000
FTUS44 KOUN 291722
TAFWWR
TAF
KWWR 291722Z 2918/3018 06013G21KT P6SM VCSH SCT030
     FM292000 05007KT P6SM SCT080
      TEMPO 3000/3004 3SM -TSRA BKN040CB
     FM300400 04007KT P6SM BKN100 OVC250
      TEMPO 3004/3008 4SM -TSRA BKN050CB
     FM300800 03005KT P6SM SCT050 OVC100 PROB30 3008/3014 4SM -TSRA
      BKN030CB OVC080=



000
FTUS44 KOUN 291722
TAFPNC
TAF
KPNC 291722Z 2918/3018 09014KT P6SM SKC
     FM292300 08007KT P6SM BKN080 OVC100
      TEMPO 3003/3007 5SM -TSRA BKN040CB
     FM300700 09012KT P6SM BKN080 OVC100
      TEMPO 3007/3011 5SM -TSRA BKN040CB
     FM301100 07010KT P6SM BKN050 PROB30 3011/3015 6SM -SHRA BKN030
      OVC080=



000
FTUS44 KOUN 291722
TAFHBR
TAF
KHBR 291722Z 2918/3018 08007KT P6SM SCT250
     FM301400 09010KT P6SM SCT080 BKN120=



000
FTUS44 KOUN 291722
TAFOKC
TAF
KOKC 291722Z 2918/3018 15006KT P6SM FEW250
     FM300000 10008KT P6SM SCT120
     FM301000 07006KT P6SM SCT080 BKN250=



000
FTUS44 KOUN 291722
TAFLAW
TAF
KLAW 291722Z 2918/3018 15008KT P6SM SKC
     FM300400 09010KT P6SM SCT120=



000
FTUS44 KOUN 291722
TAFOUN
TAF
KOUN 291722Z 2918/3018 15006KT P6SM FEW250
     FM300200 11009KT P6SM SCT120
     FM301100 07006KT P6SM SCT080=



000
FTUS44 KOUN 291722
TAFSPS
TAF
KSPS 291722Z 2918/3018 17008KT P6SM FEW080
     FM300600 14007KT P6SM SCT120=



000
FTUS44 KOUN 291722
TAFGAG
TAF
KGAG 291722Z 2918/3018 06016G21KT P6SM SCT080
      TEMPO 3001/3005 3SM -TSRA BKN040CB
     FM300500 04007KT P6SM BKN100 OVC250
      TEMPO 3005/3009 4SM -TSRA BKN050CB
     FM300900 03005KT P6SM SCT050 OVC100 PROB30 3009/3014 4SM -TSRA
      BKN030CB OVC080=



000
FTUS44 KOUN 291722
TAFLAW
TAF
KLAW 291722Z 2918/3018 15008KT P6SM SKC
     FM300400 09010KT P6SM SCT120=



000
FTUS44 KOUN 291722
TAFSPS
TAF
KSPS 291722Z 2918/3018 17008KT P6SM FEW080
     FM300600 14007KT P6SM SCT120=



000
FTUS44 KOUN 291722
TAFWWR
TAF
KWWR 291722Z 2918/3018 06013G21KT P6SM VCSH SCT030
     FM292000 05007KT P6SM SCT080
      TEMPO 3000/3004 3SM -TSRA BKN040CB
     FM300400 04007KT P6SM BKN100 OVC250
      TEMPO 3004/3008 4SM -TSRA BKN050CB
     FM300800 03005KT P6SM SCT050 OVC100 PROB30 3008/3014 4SM -TSRA
      BKN030CB OVC080=



000
FTUS44 KOUN 291722
TAFPNC
TAF
KPNC 291722Z 2918/3018 09014KT P6SM SKC
     FM292300 08007KT P6SM BKN080 OVC100
      TEMPO 3003/3007 5SM -TSRA BKN040CB
     FM300700 09012KT P6SM BKN080 OVC100
      TEMPO 3007/3011 5SM -TSRA BKN040CB
     FM301100 07010KT P6SM BKN050 PROB30 3011/3015 6SM -SHRA BKN030
      OVC080=



000
FTUS44 KOUN 291722
TAFHBR
TAF
KHBR 291722Z 2918/3018 08007KT P6SM SCT250
     FM301400 09010KT P6SM SCT080 BKN120=



000
FTUS44 KOUN 291722
TAFOUN
TAF
KOUN 291722Z 2918/3018 15006KT P6SM FEW250
     FM300200 11009KT P6SM SCT120
     FM301100 07006KT P6SM SCT080=



000
FTUS44 KOUN 291722
TAFOKC
TAF
KOKC 291722Z 2918/3018 15006KT P6SM FEW250
     FM300000 10008KT P6SM SCT120
     FM301000 07006KT P6SM SCT080 BKN250=



000
FTUS44 KOUN 291722
TAFGAG
TAF
KGAG 291722Z 2918/3018 06016G21KT P6SM SCT080
      TEMPO 3001/3005 3SM -TSRA BKN040CB
     FM300500 04007KT P6SM BKN100 OVC250
      TEMPO 3005/3009 4SM -TSRA BKN050CB
     FM300900 03005KT P6SM SCT050 OVC100 PROB30 3009/3014 4SM -TSRA
      BKN030CB OVC080=



000
FTUS44 KOUN 291127
TAFPNC
TAF
KPNC 291127Z 2912/3012 VRB04KT P6SM BKN080 BKN250
     FM291500 09006KT P6SM SCT080 BKN250
     FM292300 08007KT P6SM BKN150 PROB30 2923/3005 4SM TSRA
      BKN040CB=



000
FTUS44 KOUN 291127
TAFGAG
TAF
KGAG 291127Z 2912/3012 36014KT P6SM BKN250
     FM292100 05007KT P6SM SCT100 BKN250
      TEMPO 2922/3002 3SM TSRA BKN040CB
     FM300200 04005KT P6SM BKN100 OVC250
      TEMPO 3002/3006 5SM TSRA BKN050CB
     FM300600 VRB04KT P6SM SCT050 OVC100 PROB30 3006/3012 4SM -TSRA
      BKN030CB OVC080=



000
FTUS44 KOUN 291127
TAFWWR
TAF
KWWR 291127Z 2912/3012 36013KT P6SM BKN250
     FM292100 05007KT P6SM SCT100 BKN250
      TEMPO 2922/3002 3SM TSRA BKN040CB
     FM300200 04007KT P6SM BKN100 OVC250
      TEMPO 3002/3006 5SM TSRA BKN050CB
     FM300600 VRB03KT P6SM SCT050 OVC100 PROB30 3006/3012 4SM -TSRA
      BKN030CB OVC080=



000
FTUS44 KOUN 291127
TAFHBR
TAF
KHBR 291127Z 2912/3012 VRB04KT P6SM SKC
     FM291600 12007KT P6SM FEW050 SCT250=



000
FTUS44 KOUN 291127
TAFOUN
TAF
KOUN 291127Z 2912/3012 16008KT P6SM FEW100 SCT250
     FM300000 14009KT P6SM SCT100 SCT250
     FM300800 VRB04KT P6SM SCT250=



000
FTUS44 KOUN 291127
TAFLAW
TAF
KLAW 291127Z 2912/3012 VRB04KT P6SM SKC
     FM291600 16007KT P6SM FEW050 SCT250=



000
FTUS44 KOUN 291127
TAFOKC
TAF
KOKC 291127Z 2912/3012 16008KT P6SM FEW100 SCT250
     FM300000 14009KT P6SM SCT100 SCT250
     FM300800 VRB04KT P6SM SCT250=



000
FTUS44 KOUN 291127
TAFSPS
TAF
KSPS 291127Z 2912/3012 17006KT P6SM SKC
     FM291500 20009KT P6SM FEW250
     FM292100 15007KT P6SM SCT250=



000
FTUS44 KOUN 291127
TAFOKC
TAF
KOKC 291127Z 2912/3012 16008KT P6SM FEW100 SCT250
     FM300000 14009KT P6SM SCT100 SCT250
     FM300800 VRB04KT P6SM SCT250=



000
FTUS44 KOUN 291127
TAFLAW
TAF
KLAW 291127Z 2912/3012 VRB04KT P6SM SKC
     FM291600 16007KT P6SM FEW050 SCT250=



000
FTUS44 KOUN 291127
TAFSPS
TAF
KSPS 291127Z 2912/3012 17006KT P6SM SKC
     FM291500 20009KT P6SM FEW250
     FM292100 15007KT P6SM SCT250=



000
FTUS44 KOUN 291127
TAFWWR
TAF
KWWR 291127Z 2912/3012 36013KT P6SM BKN250
     FM292100 05007KT P6SM SCT100 BKN250
      TEMPO 2922/3002 3SM TSRA BKN040CB
     FM300200 04007KT P6SM BKN100 OVC250
      TEMPO 3002/3006 5SM TSRA BKN050CB
     FM300600 VRB03KT P6SM SCT050 OVC100 PROB30 3006/3012 4SM -TSRA
      BKN030CB OVC080=



000
FTUS44 KOUN 291127
TAFHBR
TAF
KHBR 291127Z 2912/3012 VRB04KT P6SM SKC
     FM291600 12007KT P6SM FEW050 SCT250=



000
FTUS44 KOUN 291127
TAFOKC
TAF
KOKC 291127Z 2912/3012 16008KT P6SM FEW100 SCT250
     FM300000 14009KT P6SM SCT100 SCT250
     FM300800 VRB04KT P6SM SCT250=



000
FTUS44 KOUN 291127
TAFHBR
TAF
KHBR 291127Z 2912/3012 VRB04KT P6SM SKC
     FM291600 12007KT P6SM FEW050 SCT250=



000
FTUS44 KOUN 291127
TAFGAG
TAF
KGAG 291127Z 2912/3012 36014KT P6SM BKN250
     FM292100 05007KT P6SM SCT100 BKN250
      TEMPO 2922/3002 3SM TSRA BKN040CB
     FM300200 04005KT P6SM BKN100 OVC250
      TEMPO 3002/3006 5SM TSRA BKN050CB
     FM300600 VRB04KT P6SM SCT050 OVC100 PROB30 3006/3012 4SM -TSRA
      BKN030CB OVC080=



000
FTUS44 KOUN 291127
TAFWWR
TAF
KWWR 291127Z 2912/3012 36013KT P6SM BKN250
     FM292100 05007KT P6SM SCT100 BKN250
      TEMPO 2922/3002 3SM TSRA BKN040CB
     FM300200 04007KT P6SM BKN100 OVC250
      TEMPO 3002/3006 5SM TSRA BKN050CB
     FM300600 VRB03KT P6SM SCT050 OVC100 PROB30 3006/3012 4SM -TSRA
      BKN030CB OVC080=



000
FTUS44 KOUN 291127
TAFGAG
TAF
KGAG 291127Z 2912/3012 36014KT P6SM BKN250
     FM292100 05007KT P6SM SCT100 BKN250
      TEMPO 2922/3002 3SM TSRA BKN040CB
     FM300200 04005KT P6SM BKN100 OVC250
      TEMPO 3002/3006 5SM TSRA BKN050CB
     FM300600 VRB04KT P6SM SCT050 OVC100 PROB30 3006/3012 4SM -TSRA
      BKN030CB OVC080=



000
FTUS44 KOUN 291127
TAFLAW
TAF
KLAW 291127Z 2912/3012 VRB04KT P6SM SKC
     FM291600 16007KT P6SM FEW050 SCT250=



000
FTUS44 KOUN 291127
TAFOUN
TAF
KOUN 291127Z 2912/3012 16008KT P6SM FEW100 SCT250
     FM300000 14009KT P6SM SCT100 SCT250
     FM300800 VRB04KT P6SM SCT250=



000
FTUS44 KOUN 291127
TAFPNC
TAF
KPNC 291127Z 2912/3012 VRB04KT P6SM BKN080 BKN250
     FM291500 09006KT P6SM SCT080 BKN250
     FM292300 08007KT P6SM BKN150 PROB30 2923/3005 4SM TSRA
      BKN040CB=



000
FTUS44 KOUN 291127
TAFOUN
TAF
KOUN 291127Z 2912/3012 16008KT P6SM FEW100 SCT250
     FM300000 14009KT P6SM SCT100 SCT250
     FM300800 VRB04KT P6SM SCT250=



000
FTUS44 KOUN 291127
TAFSPS
TAF
KSPS 291127Z 2912/3012 17006KT P6SM SKC
     FM291500 20009KT P6SM FEW250
     FM292100 15007KT P6SM SCT250=



000
FTUS44 KOUN 291127
TAFPNC
TAF
KPNC 291127Z 2912/3012 VRB04KT P6SM BKN080 BKN250
     FM291500 09006KT P6SM SCT080 BKN250
     FM292300 08007KT P6SM BKN150 PROB30 2923/3005 4SM TSRA
      BKN040CB=



000
FTUS44 KOUN 290540
TAFGAG
TAF
KGAG 290540Z 2906/3006 17009KT P6SM SCT100 BKN250
     FM290900 01004KT P6SM SCT250
     FM292100 06007KT P6SM SCT100
      TEMPO 2922/3002 3SM -TSRA BKN040CB
     FM300200 04007KT P6SM OVC250
      TEMPO 3002/3006 5SM -TSRA BKN050CB=



000
FTUS44 KOUN 290540
TAFSPS
TAF
KSPS 290540Z 2906/3006 15010KT P6SM SKC
     FM291500 21009KT P6SM FEW250
     FM292100 15009KT P6SM SCT250=



000
FTUS44 KOUN 290540
TAFLAW
TAF
KLAW 290540Z 2906/3006 14008KT P6SM SKC
     FM291800 16007KT P6SM FEW050=



000
FTUS44 KOUN 290540
TAFHBR
TAF
KHBR 290540Z 2906/3006 16012KT P6SM SCT250
     FM291800 12007KT P6SM SKC=



000
FTUS44 KOUN 290540
TAFLAW
TAF
KLAW 290540Z 2906/3006 14008KT P6SM SKC
     FM291800 16007KT P6SM FEW050=



000
FTUS44 KOUN 290540
TAFSPS
TAF
KSPS 290540Z 2906/3006 15010KT P6SM SKC
     FM291500 21009KT P6SM FEW250
     FM292100 15009KT P6SM SCT250=



000
FTUS44 KOUN 290540
TAFGAG
TAF
KGAG 290540Z 2906/3006 17009KT P6SM SCT100 BKN250
     FM290900 01004KT P6SM SCT250
     FM292100 06007KT P6SM SCT100
      TEMPO 2922/3002 3SM -TSRA BKN040CB
     FM300200 04007KT P6SM OVC250
      TEMPO 3002/3006 5SM -TSRA BKN050CB=



000
FTUS44 KOUN 290540
TAFPNC
TAF
KPNC 290540Z 2906/3006 16011KT P6SM SCT250
     FM291200 08006KT P6SM SCT200
     FM292100 10007KT P6SM SCT150 PROB30 3000/3004 4SM -TSRA
      BKN040CB=



000
FTUS44 KOUN 290540
TAFOKC
TAF
KOKC 290540Z 2906/3006 16008KT P6SM SCT250
     FM300000 14009KT P6SM SCT100 SCT250=



000
FTUS44 KOUN 290540
TAFHBR
TAF
KHBR 290540Z 2906/3006 16012KT P6SM SCT250
     FM291800 12007KT P6SM SKC=



000
FTUS44 KOUN 290540
TAFOUN
TAF
KOUN 290540Z 2906/3006 16010KT P6SM FEW250
     FM300000 14009KT P6SM SCT100 SCT250=



000
FTUS44 KOUN 290540
TAFWWR
TAF
KWWR 290540Z 2906/3006 17009KT P6SM SCT100 BKN250
     FM290900 01004KT P6SM SCT250
     FM292100 06007KT P6SM SCT100
      TEMPO 2922/3002 3SM -TSRA BKN040CB
     FM300200 04007KT P6SM OVC250
      TEMPO 3002/3006 5SM -TSRA BKN050CB=



000
FTUS44 KOUN 290540
TAFPNC
TAF
KPNC 290540Z 2906/3006 16011KT P6SM SCT250
     FM291200 08006KT P6SM SCT200
     FM292100 10007KT P6SM SCT150 PROB30 3000/3004 4SM -TSRA
      BKN040CB=



000
FTUS44 KOUN 290540
TAFOKC
TAF
KOKC 290540Z 2906/3006 16008KT P6SM SCT250
     FM300000 14009KT P6SM SCT100 SCT250=



000
FTUS44 KOUN 290540
TAFOUN
TAF
KOUN 290540Z 2906/3006 16010KT P6SM FEW250
     FM300000 14009KT P6SM SCT100 SCT250=



    US Dept of Commerce
    National Oceanic and Atmospheric Administration
    National Weather Service
    1325 East West Highway
    Silver Spring, MD 20910
    Page Author: NWS Internet Services Team
Disclaimer
Information Quality
Credits
Glossary
Privacy Policy
Freedom of Information Act (FOIA)
About Us
Career Opportunities